Time;durP1;ratioP1;P1;durP2;ratioP2;P2;SDS_P1;SDS_P2;PMS_P1;PMS_P2;Temp;Humidity;BMP_temperature;BMP_pressure;BME280_temperature;BME280_humidity;BME280_pressure;Samples;Min_cycle;Max_cycle;Signal;HPM_P1;HPM_P2
2023/01/24 00:01:30;;;;;;;16.00;9.25;;;3.60;99.90;;;;;;5014951;28;20125;-70
2023/01/24 00:03:56;;;;;;;17.17;10.35;;;3.80;99.90;;;;;;5016022;28;20503;-67
2023/01/24 00:06:21;;;;;;;17.83;9.70;;;3.60;99.90;;;;;;5015002;28;20041;-69
2023/01/24 00:08:47;;;;;;;17.80;10.30;;;3.90;99.90;;;;;;5016305;28;20041;-68
2023/01/24 00:11:13;;;;;;;17.80;10.95;;;3.60;99.90;;;;;;5015853;28;20042;-68
2023/01/24 00:13:39;;;;;;;18.60;10.30;;;3.70;99.90;;;;;;5015772;28;20049;-68
2023/01/24 00:16:15;;;;;;;17.70;9.88;;;4.00;99.90;;;;;;5015986;28;20064;-68
2023/01/24 00:18:41;;;;;;;17.05;9.32;;;3.40;99.90;;;;;;5016561;28;20427;-68
2023/01/24 00:21:12;;;;;;;19.38;10.50;;;3.60;99.90;;;;;;5014484;28;20089;-68
2023/01/24 00:23:47;;;;;;;16.52;9.43;;;3.40;99.90;;;;;;5015752;28;20054;-67
2023/01/24 00:26:14;;;;;;;18.80;9.98;;;3.60;99.90;;;;;;5015614;28;20361;-67
2023/01/24 00:28:40;;;;;;;15.35;9.43;;;3.80;99.90;;;;;;5014365;28;20053;-68
2023/01/24 00:31:05;;;;;;;19.67;10.80;;;3.80;99.90;;;;;;5014522;28;20369;-67
2023/01/24 00:33:32;;;;;;;18.02;9.98;;;3.60;99.90;;;;;;5015534;28;20065;-68
2023/01/24 00:35:58;;;;;;;17.73;9.95;;;4.20;99.90;;;;;;5015453;28;20049;-67
2023/01/24 00:38:23;;;;;;;16.25;9.77;;;4.00;99.90;;;;;;5015944;28;20125;-68
2023/01/24 00:40:50;;;;;;;18.42;10.38;;;3.80;99.90;;;;;;5016133;28;20045;-68
2023/01/24 00:43:15;;;;;;;17.35;10.15;;;3.80;99.90;;;;;;5014995;28;20453;-68
2023/01/24 00:45:44;;;;;;;20.30;10.30;;;3.90;99.90;;;;;;5015255;28;20054;-68
2023/01/24 00:48:10;;;;;;;19.30;11.10;;;3.60;99.90;;;;;;5015228;28;20108;-68
2023/01/24 00:50:35;;;;;;;17.38;10.13;;;3.70;99.90;;;;;;5014939;28;20133;-68
2023/01/24 00:53:02;;;;;;;17.08;10.07;;;3.80;99.90;;;;;;5015165;28;20124;-67
2023/01/24 00:55:28;;;;;;;18.52;10.27;;;3.60;99.90;;;;;;5015065;28;20116;-67
2023/01/24 00:57:54;;;;;;;18.30;10.80;;;4.10;99.90;;;;;;5015066;28;20064;-67
2023/01/24 01:00:20;;;;;;;17.42;10.07;;;3.40;99.90;;;;;;5015470;28;20132;-68
2023/01/24 01:02:47;;;;;;;18.63;11.00;;;3.60;99.90;;;;;;5013922;28;20049;-68
2023/01/24 01:05:13;;;;;;;21.08;11.13;;;4.30;99.90;;;;;;5013173;28;20058;-68
2023/01/24 01:07:38;;;;;;;17.80;10.55;;;3.90;99.90;;;;;;4981566;28;20137;-66
2023/01/24 01:10:04;;;;;;;17.08;10.77;;;4.40;99.90;;;;;;5014865;28;20052;-67
2023/01/24 01:12:30;;;;;;;20.52;11.02;;;3.50;99.90;;;;;;5015267;28;20100;-67
2023/01/24 01:14:56;;;;;;;18.05;10.50;;;3.50;99.90;;;;;;5014007;28;20054;-67
2023/01/24 01:17:23;;;;;;;17.65;10.25;;;4.10;99.90;;;;;;4997013;28;20120;-68
2023/01/24 01:19:52;;;;;;;18.13;11.32;;;3.80;99.90;;;;;;5013648;28;20057;-68
2023/01/24 01:22:18;;;;;;;20.45;11.50;;;3.80;99.90;;;;;;5014586;28;20058;-68
2023/01/24 01:24:44;;;;;;;21.70;10.60;;;3.80;99.90;;;;;;5014168;28;20384;-67
2023/01/24 01:27:10;;;;;;;19.35;11.85;;;3.50;99.90;;;;;;5014484;28;20042;-67
2023/01/24 01:29:36;;;;;;;22.10;11.98;;;3.90;99.90;;;;;;5013273;28;20049;-68
2023/01/24 01:32:02;;;;;;;19.30;10.98;;;3.70;99.90;;;;;;5014456;28;20042;-68
2023/01/24 01:34:27;;;;;;;19.75;11.07;;;3.40;99.90;;;;;;4997028;28;20041;-68
2023/01/24 01:36:53;;;;;;;19.92;11.48;;;3.60;99.90;;;;;;5014585;28;20112;-67
2023/01/24 01:39:19;;;;;;;19.08;11.27;;;4.30;99.90;;;;;;5014312;28;20125;-68
2023/01/24 01:41:44;;;;;;;19.15;11.13;;;4.40;99.90;;;;;;5014112;28;20129;-67
2023/01/24 01:44:38;;;;;;;17.48;10.88;;;3.70;99.90;;;;;;5013939;28;20057;-67
2023/01/24 01:47:25;;;;;;;21.55;11.57;;;3.50;99.90;;;;;;4997189;28;20058;-68
2023/01/24 01:50:09;;;;;;;20.73;11.68;;;3.50;99.90;;;;;;5014676;28;20041;-68
2023/01/24 01:52:39;;;;;;;20.33;11.45;;;3.60;99.90;;;;;;5014201;28;20092;-67
2023/01/24 01:55:11;;;;;;;18.40;11.02;;;4.40;99.90;;;;;;5014342;28;20132;-67
2023/01/24 01:57:37;;;;;;;20.33;11.43;;;4.20;99.90;;;;;;5014169;28;20377;-67
2023/01/24 02:00:18;;;;;;;20.83;11.75;;;3.60;99.90;;;;;;5014492;28;20343;-68
2023/01/24 02:02:48;;;;;;;18.88;10.68;;;3.60;99.90;;;;;;5013977;28;20125;-67
2023/01/24 02:05:18;;;;;;;20.48;10.68;;;3.60;99.90;;;;;;5014270;28;20116;-67
2023/01/24 02:08:06;;;;;;;22.48;12.73;;;3.80;99.90;;;;;;5013879;28;20056;-67
2023/01/24 02:11:37;;;;;;;20.33;11.80;;;3.60;99.90;;;;;;5013913;28;20399;-67
2023/01/24 02:13:17;;;;;;;19.95;11.60;;;3.60;99.90;;;;;;5014324;28;20056;-67
2023/01/24 02:16:03;;;;;;;18.42;10.63;;;4.20;99.90;;;;;;5013609;28;20130;-68
2023/01/24 02:18:30;;;;;;;20.50;11.73;;;4.20;99.90;;;;;;5014293;28;20054;-68
2023/01/24 02:20:56;;;;;;;19.50;11.32;;;3.90;99.90;;;;;;5013744;28;20058;-68
2023/01/24 02:23:37;;;;;;;20.08;11.07;;;3.60;99.90;;;;;;5013696;28;20100;-67
2023/01/24 02:26:14;;;;;;;20.85;12.60;;;3.30;99.90;;;;;;5012572;28;20096;-67
2023/01/24 02:28:54;;;;;;;21.33;11.98;;;3.50;99.90;;;;;;5013901;28;20056;-68
2023/01/24 02:31:20;;;;;;;21.10;11.75;;;3.50;99.90;;;;;;5013665;28;20100;-67
2023/01/24 02:33:46;;;;;;;24.13;12.40;;;4.20;99.90;;;;;;5013420;28;20512;-67
2023/01/24 02:36:18;;;;;;;19.75;11.13;;;4.00;99.90;;;;;;5013663;28;20104;-67
2023/01/24 02:38:50;;;;;;;21.48;12.25;;;4.00;99.90;;;;;;5013609;28;20041;-67
2023/01/24 02:41:17;;;;;;;20.77;11.35;;;3.80;99.90;;;;;;4996284;28;20060;-67
2023/01/24 02:43:48;;;;;;;21.48;12.10;;;3.90;99.90;;;;;;5013546;28;20046;-67
2023/01/24 02:46:14;;;;;;;19.35;10.35;;;3.70;99.90;;;;;;5012521;28;20049;-67
2023/01/24 02:48:39;;;;;;;21.17;12.05;;;4.10;99.90;;;;;;5013544;28;20400;-68
2023/01/24 02:53:50;;;;;;;24.00;11.48;;;3.70;99.90;;;;;;5013483;28;20052;-67
2023/01/24 02:59:00;;;;;;;20.00;11.75;;;4.10;99.90;;;;;;5013427;28;20089;-67
2023/01/24 03:01:25;;;;;;;20.15;11.82;;;3.90;99.90;;;;;;5012212;28;20081;-67
2023/01/24 03:03:52;;;;;;;19.65;11.00;;;3.60;99.90;;;;;;5013366;28;20046;-68
2023/01/24 03:06:18;;;;;;;19.80;10.73;;;4.20;99.90;;;;;;5013302;28;20504;-67
2023/01/24 03:08:44;;;;;;;17.55;10.45;;;4.20;99.90;;;;;;5012093;28;20077;-67
2023/01/24 03:11:11;;;;;;;19.33;11.55;;;4.10;99.90;;;;;;5012964;28;20559;-67
2023/01/24 03:35:35;;;;;;;15.45;10.27;;;4.30;99.90;;;;;;5016591;28;20124;-67
2023/01/24 03:40:45;;;;;;;19.08;9.65;;;3.90;99.90;;;;;;5016501;28;20072;-67
2023/01/24 03:43:11;;;;;;;16.50;9.65;;;3.90;99.90;;;;;;5016422;28;20475;-71
2023/01/24 03:45:39;;;;;;;13.63;8.70;;;4.60;99.90;;;;;;5016341;28;20049;-68
2023/01/24 03:48:13;;;;;;;16.15;9.23;;;3.60;99.90;;;;;;5016369;28;20100;-67
2023/01/24 03:53:28;;;;;;;13.02;8.00;;;4.00;99.90;;;;;;5016551;28;20147;-67
2023/01/24 03:55:57;;;;;;;12.60;7.88;;;3.90;99.90;;;;;;5015237;28;20479;-67
2023/01/24 03:58:23;;;;;;;11.93;7.90;;;4.30;99.90;;;;;;5015934;28;20491;-67
2023/01/24 04:00:49;;;;;;;17.65;9.00;;;3.70;99.90;;;;;;5016189;28;20049;-67
2023/01/24 04:03:15;;;;;;;14.70;7.80;;;3.80;99.90;;;;;;5014942;28;20042;-67
2023/01/24 04:05:40;;;;;;;12.20;7.45;;;3.70;99.90;;;;;;5016881;28;20038;-67
2023/01/24 04:08:07;;;;;;;14.73;8.63;;;4.20;99.90;;;;;;5015914;28;20104;-68
2023/01/24 04:10:33;;;;;;;14.55;8.68;;;4.20;99.90;;;;;;5014763;28;20096;-68
2023/01/24 04:12:59;;;;;;;15.68;8.38;;;4.60;99.90;;;;;;5014708;28;20050;-68
2023/01/24 04:15:28;;;;;;;13.73;7.68;;;3.50;99.90;;;;;;5014764;28;20080;-67
2023/01/24 04:17:58;;;;;;;14.23;8.30;;;3.80;99.90;;;;;;5014128;28;20101;-67
2023/01/24 04:20:26;;;;;;;14.32;8.93;;;3.90;99.90;;;;;;5016024;28;20050;-67
2023/01/24 04:22:51;;;;;;;14.15;7.72;;;4.00;99.90;;;;;;5014735;28;20054;-67
2023/01/24 04:25:17;;;;;;;14.25;8.27;;;3.80;99.90;;;;;;5015623;28;20045;-68
2023/01/24 04:27:44;;;;;;;14.70;8.68;;;4.00;99.90;;;;;;5016027;28;20053;-67
2023/01/24 04:30:12;;;;;;;15.00;9.00;;;4.00;99.90;;;;;;5014613;28;20380;-67
2023/01/24 04:32:37;;;;;;;13.85;8.40;;;3.50;99.90;;;;;;4998498;28;20396;-67
2023/01/24 04:35:04;;;;;;;14.88;8.40;;;3.70;99.90;;;;;;5014286;28;20041;-68
2023/01/24 04:37:30;;;;;;;15.73;9.15;;;3.50;99.90;;;;;;5015022;28;20057;-67
2023/01/24 04:39:56;;;;;;;15.75;9.30;;;4.20;99.90;;;;;;5015798;28;20045;-67
2023/01/24 04:42:22;;;;;;;15.48;9.30;;;4.50;99.90;;;;;;5015292;28;20133;-67
2023/01/24 04:44:47;;;;;;;17.45;10.07;;;4.10;99.90;;;;;;4997880;28;20104;-67
2023/01/24 04:47:13;;;;;;;16.73;9.80;;;3.80;99.90;;;;;;5014032;28;20045;-68
2023/01/24 04:49:41;;;;;;;17.13;10.40;;;3.90;99.90;;;;;;5015056;28;20085;-68
2023/01/24 04:52:10;;;;;;;16.48;9.35;;;3.70;99.90;;;;;;5015192;28;20447;-67
2023/01/24 04:54:36;;;;;;;16.23;9.90;;;4.20;99.90;;;;;;5013910;28;20415;-68
2023/01/24 04:57:01;;;;;;;17.42;9.52;;;3.70;99.90;;;;;;5015368;28;20137;-67
2023/01/24 04:59:27;;;;;;;15.85;9.40;;;3.60;99.90;;;;;;5013842;28;20435;-68
2023/01/24 05:01:52;;;;;;;15.20;9.18;;;3.80;99.90;;;;;;5015270;28;20046;-68
2023/01/24 05:04:18;;;;;;;16.50;9.40;;;3.90;99.90;;;;;;5014459;28;20045;-68
2023/01/24 05:06:44;;;;;;;17.63;10.05;;;3.60;99.90;;;;;;5015721;28;20050;-68
2023/01/24 05:09:09;;;;;;;18.15;10.50;;;3.80;99.90;;;;;;5015572;28;20400;-68
2023/01/24 05:11:36;;;;;;;14.32;9.38;;;3.50;99.90;;;;;;5015046;28;20049;-68
2023/01/24 05:14:02;;;;;;;17.00;9.52;;;4.00;99.90;;;;;;5013703;28;20046;-66
2023/01/24 05:16:28;;;;;;;16.65;10.38;;;3.60;99.90;;;;;;5014726;28;20085;-68
2023/01/24 05:18:53;;;;;;;18.23;11.05;;;4.00;99.90;;;;;;5014812;28;20089;-68
2023/01/24 05:21:19;;;;;;;14.95;9.50;;;3.70;99.90;;;;;;5014719;28;20434;-68
2023/01/24 05:23:51;;;;;;;17.15;10.05;;;4.00;99.90;;;;;;5014845;28;20049;-68
2023/01/24 05:26:21;;;;;;;16.33;9.48;;;4.00;99.90;;;;;;5013636;28;20054;-68
2023/01/24 05:28:51;;;;;;;14.82;9.52;;;3.30;99.90;;;;;;5014512;28;20041;-68
2023/01/24 05:31:17;;;;;;;16.00;9.73;;;4.40;99.90;;;;;;5014396;28;20463;-68
2023/01/24 05:33:43;;;;;;;17.27;10.90;;;4.00;99.90;;;;;;5014428;28;20049;-68
2023/01/24 05:36:16;;;;;;;16.80;10.70;;;3.80;99.90;;;;;;5014926;28;20092;-68
2023/01/24 05:38:42;;;;;;;18.90;10.98;;;3.70;99.90;;;;;;5014663;28;20045;-68
2023/01/24 05:41:10;;;;;;;16.23;9.63;;;3.80;99.90;;;;;;5014332;28;20053;-68
2023/01/24 05:43:37;;;;;;;17.27;9.70;;;3.80;99.90;;;;;;5013043;28;20096;-68
2023/01/24 05:46:06;;;;;;;17.05;10.32;;;4.00;99.90;;;;;;5013230;28;20128;-68
2023/01/24 05:48:31;;;;;;;15.98;9.98;;;3.80;99.90;;;;;;5014635;28;20092;-68
2023/01/24 05:51:03;;;;;;;16.83;10.02;;;3.80;99.90;;;;;;5012550;28;20045;-68
2023/01/24 05:53:31;;;;;;;17.33;9.48;;;3.50;99.90;;;;;;5012963;28;20045;-68
2023/01/24 05:55:58;;;;;;;15.10;9.27;;;3.80;99.90;;;;;;5014328;28;20403;-68
2023/01/24 05:58:33;;;;;;;14.52;8.52;;;3.80;99.90;;;;;;5014064;28;20052;-68
2023/01/24 06:00:58;;;;;;;15.13;9.52;;;3.80;99.90;;;;;;5014114;28;20046;-68
2023/01/24 06:03:24;;;;;;;13.55;8.68;;;3.60;99.90;;;;;;5013050;28;20387;-68
2023/01/24 06:05:52;;;;;;;13.27;8.52;;;3.80;99.90;;;;;;5014092;28;20058;-68
2023/01/24 06:08:19;;;;;;;14.30;7.97;;;3.50;99.90;;;;;;5014378;28;20056;-68
2023/01/24 06:10:45;;;;;;;14.55;8.50;;;3.60;99.90;;;;;;5013905;28;20096;-68
2023/01/24 06:13:11;;;;;;;12.73;8.25;;;3.60;99.90;;;;;;5012736;28;20041;-67
2023/01/24 06:15:38;;;;;;;12.88;8.50;;;3.80;99.90;;;;;;5013852;28;20042;-68
2023/01/24 06:18:05;;;;;;;11.73;7.53;;;4.00;99.90;;;;;;5014028;28;20188;-68
2023/01/24 06:20:31;;;;;;;12.55;8.13;;;3.40;99.90;;;;;;5013890;28;20060;-67
2023/01/24 06:23:05;;;;;;;11.27;7.63;;;3.40;99.90;;;;;;5012689;28;20058;-68
2023/01/24 06:25:32;;;;;;;12.63;7.95;;;3.40;99.90;;;;;;5013046;28;20057;-68
2023/01/24 06:27:58;;;;;;;14.40;7.72;;;3.50;99.90;;;;;;5012710;28;20046;-68
2023/01/24 06:30:24;;;;;;;13.65;8.55;;;3.50;99.90;;;;;;5014214;28;20038;-68
2023/01/24 06:33:08;;;;;;;12.68;7.57;;;3.30;99.90;;;;;;5014499;28;20380;-68
2023/01/24 06:35:42;;;;;;;9.70;7.18;;;3.60;99.90;;;;;;5014636;28;20049;-68
2023/01/24 06:38:21;;;;;;;11.02;6.93;;;3.50;99.90;;;;;;5013596;28;20050;-67
2023/01/24 06:40:52;;;;;;;13.18;7.00;;;3.40;99.90;;;;;;5013929;28;20072;-68
2023/01/24 06:43:18;;;;;;;10.98;5.72;;;3.70;99.90;;;;;;5013437;28;20053;-68
2023/01/24 06:45:44;;;;;;;11.88;7.65;;;3.40;99.90;;;;;;5013999;28;20045;-68
2023/01/24 06:48:09;;;;;;;10.43;6.85;;;3.60;99.90;;;;;;5013450;28;20057;-67
2023/01/24 06:50:35;;;;;;;10.27;6.15;;;3.40;99.90;;;;;;5012313;28;20053;-68
2023/01/24 06:53:01;;;;;;;9.82;5.82;;;4.00;99.90;;;;;;5013453;28;20067;-68
2023/01/24 06:55:27;;;;;;;10.23;6.25;;;3.60;99.90;;;;;;5013497;28;20057;-68
2023/01/24 06:57:57;;;;;;;9.60;6.47;;;3.30;99.90;;;;;;4995967;28;20050;-68
2023/01/24 07:00:23;;;;;;;10.13;6.05;;;3.80;99.90;;;;;;5013444;28;20042;-68
2023/01/24 07:03:00;;;;;;;9.68;6.28;;;3.50;99.90;;;;;;5012600;28;20054;-68
2023/01/24 07:05:26;;;;;;;12.32;6.82;;;3.30;99.90;;;;;;5000736;28;20499;-68
2023/01/24 07:07:52;;;;;;;11.25;6.07;;;3.70;99.90;;;;;;5017093;28;20100;-68
2023/01/24 07:10:18;;;;;;;10.55;6.25;;;3.70;99.90;;;;;;5015977;28;20057;-67
2023/01/24 07:12:44;;;;;;;12.68;6.30;;;3.60;99.90;;;;;;5016787;28;20046;-68
2023/01/24 07:15:10;;;;;;;11.98;6.35;;;4.20;99.90;;;;;;5017450;28;20133;-68
2023/01/24 07:17:36;;;;;;;14.13;7.18;;;3.30;99.90;;;;;;5016681;28;20495;-68
2023/01/24 07:20:02;;;;;;;9.82;6.70;;;3.40;99.90;;;;;;5016888;28;20050;-68
2023/01/24 07:22:28;;;;;;;11.02;6.60;;;3.40;99.90;;;;;;5017441;28;20042;-68
2023/01/24 07:24:54;;;;;;;9.98;5.90;;;3.40;99.90;;;;;;5017419;28;20169;-68
2023/01/24 07:27:20;;;;;;;10.48;6.50;;;3.40;99.90;;;;;;5016736;28;20129;-68
2023/01/24 07:29:46;;;;;;;9.07;5.63;;;3.50;99.90;;;;;;5016224;28;20616;-67
2023/01/24 07:32:12;;;;;;;9.20;5.32;;;3.70;99.90;;;;;;5016672;28;20132;-68
2023/01/24 07:34:38;;;;;;;11.70;6.57;;;3.60;99.90;;;;;;5015678;28;20042;-67
2023/01/24 07:37:06;;;;;;;10.55;6.00;;;3.30;99.90;;;;;;5016623;28;20049;-68
2023/01/24 07:39:32;;;;;;;11.18;6.45;;;3.70;99.90;;;;;;5016614;28;20096;-68
2023/01/24 07:41:58;;;;;;;10.43;6.22;;;3.90;99.90;;;;;;5015544;28;20041;-68
2023/01/24 07:44:23;;;;;;;10.20;5.60;;;4.00;99.90;;;;;;5016416;28;20042;-68
2023/01/24 07:46:49;;;;;;;8.52;5.30;;;3.80;99.90;;;;;;5016412;28;20537;-68
2023/01/24 07:49:15;;;;;;;10.02;6.05;;;3.80;99.90;;;;;;5016851;28;20064;-68
2023/01/24 07:51:41;;;;;;;9.25;5.40;;;4.20;99.90;;;;;;5016381;28;20046;-68
2023/01/24 07:54:06;;;;;;;9.43;5.88;;;4.20;99.90;;;;;;5016296;28;20372;-68
2023/01/24 07:56:32;;;;;;;9.55;5.50;;;3.40;99.90;;;;;;5015207;28;20054;-69
2023/01/24 07:58:58;;;;;;;9.05;5.30;;;4.20;99.90;;;;;;5016196;28;20049;-68
2023/01/24 08:01:25;;;;;;;11.40;5.90;;;3.90;99.90;;;;;;5016163;28;20100;-68
2023/01/24 08:03:55;;;;;;;8.63;5.05;;;3.70;99.90;;;;;;5016133;28;20507;-68
2023/01/24 08:06:20;;;;;;;9.30;6.15;;;3.30;99.90;;;;;;5016549;28;20129;-68
2023/01/24 08:08:46;;;;;;;8.43;4.90;;;3.60;99.90;;;;;;5015991;28;20132;-68
2023/01/24 08:11:15;;;;;;;7.43;4.72;;;3.70;99.90;;;;;;5016744;28;20046;-68
2023/01/24 08:13:41;;;;;;;10.80;5.10;;;3.40;99.90;;;;;;5014513;28;20057;-68
2023/01/24 08:16:07;;;;;;;8.65;5.40;;;3.90;99.90;;;;;;5015817;28;20495;-68
2023/01/24 08:18:33;;;;;;;9.70;5.43;;;3.60;99.90;;;;;;5014593;28;20050;-68
2023/01/24 08:20:59;;;;;;;7.28;4.18;;;3.60;99.90;;;;;;5015771;28;20050;-69
2023/01/24 08:23:25;;;;;;;9.43;5.20;;;3.70;99.90;;;;;;5016013;28;20042;-68
2023/01/24 08:25:51;;;;;;;9.27;5.65;;;4.00;99.90;;;;;;5016164;28;20050;-69
2023/01/24 08:28:17;;;;;;;11.02;5.28;;;3.40;99.90;;;;;;5015508;28;20045;-68
2023/01/24 08:30:43;;;;;;;13.40;6.57;;;3.90;99.90;;;;;;5014413;28;20116;-68
2023/01/24 08:33:11;;;;;;;9.48;5.22;;;3.90;99.90;;;;;;5014504;28;20080;-67
2023/01/24 08:35:37;;;;;;;9.30;5.88;;;3.40;99.90;;;;;;5016086;28;20050;-69
2023/01/24 08:38:03;;;;;;;9.55;5.50;;;4.00;99.90;;;;;;5019822;28;20050;-68
2023/01/24 08:40:29;;;;;;;9.88;5.25;;;3.40;99.90;;;;;;5014597;28;20042;-68
2023/01/24 08:42:54;;;;;;;8.93;4.75;;;3.40;99.90;;;;;;5015508;28;20088;-68
2023/01/24 08:45:20;;;;;;;8.65;4.93;;;4.10;99.90;;;;;;5015317;28;20041;-67
2023/01/24 08:47:51;;;;;;;9.98;5.50;;;3.90;99.90;;;;;;5014210;28;20134;-68
2023/01/24 08:50:19;;;;;;;9.77;6.05;;;3.80;99.90;;;;;;5015900;28;20037;-68
2023/01/24 08:52:45;;;;;;;8.68;5.68;;;3.50;99.90;;;;;;5018392;28;20053;-68
2023/01/24 08:55:11;;;;;;;7.97;5.20;;;3.40;99.90;;;;;;5015565;28;20563;-68
2023/01/24 08:57:37;;;;;;;9.00;4.95;;;3.70;99.90;;;;;;5015169;28;20128;-69
2023/01/24 09:00:03;;;;;;;9.10;4.93;;;4.40;99.90;;;;;;5014263;28;20057;-68
2023/01/24 09:02:32;;;;;;;7.90;5.43;;;3.40;99.90;;;;;;5014217;28;20493;-67
2023/01/24 09:04:58;;;;;;;8.73;5.05;;;4.00;99.90;;;;;;5015654;28;20068;-68
2023/01/24 09:07:24;;;;;;;9.07;4.95;;;3.90;99.90;;;;;;5015030;28;20061;-68
2023/01/24 09:09:49;;;;;;;9.88;5.45;;;4.10;99.90;;;;;;5014926;28;20049;-68
2023/01/24 09:12:15;;;;;;;9.35;5.68;;;4.30;99.90;;;;;;5015018;28;20053;-67
2023/01/24 09:14:41;;;;;;;11.88;7.57;;;4.00;99.90;;;;;;5014842;28;20503;-67
2023/01/24 09:17:07;;;;;;;7.47;5.65;;;3.60;99.90;;;;;;4997260;28;20129;-67
2023/01/24 09:19:33;;;;;;;12.95;5.90;;;3.70;99.90;;;;;;5015478;28;20131;-68
2023/01/24 09:21:58;;;;;;;7.68;4.90;;;3.60;99.90;;;;;;5013647;28;20056;-68
2023/01/24 09:24:24;;;;;;;9.38;5.38;;;3.80;99.90;;;;;;5015461;28;20046;-67
2023/01/24 09:26:50;;;;;;;9.27;5.32;;;3.90;99.90;;;;;;5015303;28;20088;-69
2023/01/24 09:29:16;;;;;;;8.30;5.57;;;3.60;99.90;;;;;;5013480;28;20403;-69
2023/01/24 09:31:42;;;;;;;8.32;5.75;;;4.20;99.90;;;;;;5013606;28;20045;-68
2023/01/24 09:34:07;;;;;;;9.15;6.03;;;4.20;99.90;;;;;;5015073;28;20132;-68
2023/01/24 09:36:33;;;;;;;9.30;4.97;;;3.80;99.90;;;;;;5013546;28;20056;-68
2023/01/24 09:38:59;;;;;;;8.05;5.35;;;3.30;99.90;;;;;;5015274;28;20038;-69
2023/01/24 09:41:46;;;;;;;9.55;5.78;;;3.50;99.90;;;;;;5014443;28;20053;-69
2023/01/24 09:44:12;;;;;;;9.85;5.45;;;3.60;99.90;;;;;;5013137;28;20100;-69
2023/01/24 09:46:42;;;;;;;9.15;5.55;;;3.60;99.90;;;;;;5013676;28;20045;-69
2023/01/24 09:49:17;;;;;;;7.78;4.85;;;4.00;99.90;;;;;;5014276;28;20129;-68
2023/01/24 09:51:51;;;;;;;8.45;4.85;;;3.50;99.90;;;;;;5014892;28;20128;-68
2023/01/24 09:54:47;;;;;;;9.23;5.57;;;3.50;99.90;;;;;;5014497;28;20484;-69
2023/01/24 09:57:28;;;;;;;10.65;5.80;;;3.50;99.90;;;;;;5006141;28;20089;-68
2023/01/24 10:00:09;;;;;;;9.93;5.72;;;3.50;99.90;;;;;;5013879;28;20046;-68
2023/01/24 10:02:35;;;;;;;10.05;5.93;;;4.00;99.90;;;;;;5014773;28;20440;-68
2023/01/24 10:05:01;;;;;;;10.90;5.93;;;3.50;99.90;;;;;;5013919;28;20092;-68
2023/01/24 10:07:45;;;;;;;9.85;5.60;;;3.80;99.90;;;;;;5014018;28;20046;-68
2023/01/24 10:10:13;;;;;;;10.48;5.80;;;3.50;99.90;;;;;;5013933;28;20042;-68
2023/01/24 10:12:57;;;;;;;8.73;5.95;;;3.80;99.90;;;;;;5013992;28;20072;-68
2023/01/24 10:15:59;;;;;;;9.93;6.45;;;3.40;99.90;;;;;;5014220;28;20050;-68
2023/01/24 10:18:25;;;;;;;10.60;6.45;;;3.50;99.90;;;;;;4995456;28;20057;-68
2023/01/24 10:21:03;;;;;;;12.55;6.47;;;3.50;99.90;;;;;;5013801;28;20096;-69
2023/01/24 10:23:46;;;;;;;10.82;6.53;;;3.50;99.90;;;;;;5014544;28;20494;-68
2023/01/24 10:26:50;;;;;;;16.08;7.90;;;3.80;99.90;;;;;;5014416;28;20049;-69
2023/01/24 10:29:30;;;;;;;13.55;6.90;;;3.40;99.90;;;;;;5013767;28;20053;-68
2023/01/24 10:32:11;;;;;;;9.85;5.90;;;4.00;99.90;;;;;;5013191;28;20151;-68
2023/01/24 10:34:44;;;;;;;11.15;6.32;;;3.70;99.90;;;;;;5013140;28;20132;-69
2023/01/24 10:37:10;;;;;;;11.77;6.95;;;3.80;99.90;;;;;;5013998;28;20064;-69
2023/01/24 10:39:36;;;;;;;11.07;5.97;;;3.70;99.90;;;;;;5016514;28;20042;-69
2023/01/24 10:42:25;;;;;;;12.10;7.13;;;4.00;99.90;;;;;;5016512;28;20381;-68
2023/01/24 10:44:54;;;;;;;12.02;6.85;;;3.70;99.90;;;;;;5017414;28;20132;-69
2023/01/24 10:47:42;;;;;;;13.45;7.32;;;3.80;99.90;;;;;;5016653;28;20515;-68
2023/01/24 10:50:16;;;;;;;10.77;6.40;;;3.70;99.90;;;;;;5017433;28;20046;-69
2023/01/24 10:52:43;;;;;;;14.45;8.02;;;3.60;99.90;;;;;;5016952;28;20053;-68
2023/01/24 10:55:38;;;;;;;11.43;7.13;;;3.60;99.90;;;;;;5017195;28;20507;-68
2023/01/24 10:58:23;;;;;;;12.02;7.47;;;3.50;99.90;;;;;;5017486;28;20081;-68
2023/01/24 11:01:19;;;;;;;13.05;7.55;;;4.00;99.90;;;;;;5017247;28;20049;-69
2023/01/24 11:03:46;;;;;;;12.65;7.35;;;3.50;99.90;;;;;;5009127;28;20057;-68
2023/01/24 11:06:32;;;;;;;11.40;6.75;;;3.80;99.90;;;;;;5016133;28;20053;-69
2023/01/24 11:09:08;;;;;;;10.43;6.40;;;3.90;99.90;;;;;;5016113;28;20050;-68
2023/01/24 11:11:34;;;;;;;11.43;7.00;;;3.70;99.90;;;;;;5017837;28;20108;-69
2023/01/24 11:14:01;;;;;;;11.00;6.88;;;4.40;99.90;;;;;;5017327;28;20049;-69
2023/01/24 11:16:33;;;;;;;12.07;6.78;;;3.80;99.90;;;;;;5016154;28;20116;-68
2023/01/24 11:19:01;;;;;;;10.95;6.95;;;4.20;99.90;;;;;;5015531;28;20061;-69
2023/01/24 11:21:29;;;;;;;15.65;7.57;;;3.90;99.90;;;;;;5017459;28;20400;-69
2023/01/24 11:24:06;;;;;;;13.57;9.20;;;4.00;99.90;;;;;;4999955;28;20053;-69
2023/01/24 11:26:37;;;;;;;12.02;7.43;;;3.70;99.90;;;;;;5017746;28;20100;-69
2023/01/24 11:29:06;;;;;;;10.07;6.43;;;3.90;99.90;;;;;;5016857;28;20046;-68
2023/01/24 11:31:51;;;;;;;13.02;7.22;;;4.50;99.90;;;;;;5016795;28;20046;-71
2023/01/24 11:35:07;;;;;;;10.73;6.30;;;3.70;99.90;;;;;;5015658;28;20061;-68
2023/01/24 11:37:39;;;;;;;11.63;6.85;;;3.70;99.90;;;;;;4940138;29;20138;-69
2023/01/24 11:40:23;;;;;;;11.85;7.18;;;3.80;99.90;;;;;;4960454;29;20098;-69
2023/01/24 11:42:51;;;;;;;15.27;8.00;;;3.70;99.90;;;;;;4995459;28;20137;-69
2023/01/24 11:45:51;;;;;;;11.90;7.10;;;4.20;99.90;;;;;;5015303;28;20128;-70
2023/01/24 11:48:29;;;;;;;12.63;7.10;;;3.90;99.90;;;;;;5016145;28;20090;-68
2023/01/24 11:51:24;;;;;;;12.05;7.43;;;3.90;99.90;;;;;;5016314;28;20042;-69
2023/01/24 11:54:08;;;;;;;11.38;7.05;;;3.90;99.90;;;;;;5016402;28;20053;-68
2023/01/24 11:57:00;;;;;;;12.80;7.10;;;3.70;99.90;;;;;;5017235;28;20084;-68
2023/01/24 11:59:42;;;;;;;11.93;6.53;;;3.70;99.90;;;;;;5016068;28;20050;-68
2023/01/24 12:02:13;;;;;;;11.70;6.70;;;4.20;99.90;;;;;;5017074;28;20124;-68
2023/01/24 12:04:51;;;;;;;11.60;7.15;;;4.20;99.90;;;;;;5016172;28;20046;-68
2023/01/24 12:07:48;;;;;;;12.48;7.40;;;3.90;99.90;;;;;;5016095;28;20058;-68
2023/01/24 12:10:44;;;;;;;11.95;6.72;;;3.70;99.90;;;;;;4991396;28;20097;-68
2023/01/24 12:13:20;;;;;;;13.00;7.07;;;3.80;99.90;;;;;;5016710;28;20046;-68
2023/01/24 12:16:32;;;;;;;11.70;7.13;;;3.80;99.90;;;;;;5016714;28;20123;-68
2023/01/24 12:19:23;;;;;;;12.13;7.60;;;4.10;99.90;;;;;;4954985;28;20056;-69
2023/01/24 12:21:53;;;;;;;11.70;7.63;;;3.70;99.90;;;;;;4939900;29;20557;-68
2023/01/24 12:24:24;;;;;;;11.98;6.90;;;4.40;99.90;;;;;;4999099;28;20089;-68
2023/01/24 12:26:58;;;;;;;13.15;7.60;;;4.00;99.90;;;;;;5014989;28;20085;-69
2023/01/24 12:29:38;;;;;;;12.77;7.60;;;4.50;99.90;;;;;;5016309;28;20088;-68
2023/01/24 12:32:27;;;;;;;12.82;7.75;;;4.00;99.90;;;;;;5016320;28;20107;-68
2023/01/24 12:35:17;;;;;;;12.27;7.47;;;4.00;99.90;;;;;;5014658;28;20487;-68
2023/01/24 12:37:49;;;;;;;13.35;8.00;;;3.70;99.90;;;;;;5015572;28;20500;-68
2023/01/24 12:40:15;;;;;;;13.50;7.32;;;4.00;99.90;;;;;;5015586;28;20081;-68
2023/01/24 12:43:15;;;;;;;16.83;9.27;;;4.00;99.90;;;;;;5015986;28;20092;-68
2023/01/24 12:46:13;;;;;;;14.63;7.97;;;3.80;99.90;;;;;;5015950;28;20096;-68
2023/01/24 12:48:48;;;;;;;13.85;7.75;;;3.80;99.90;;;;;;5015918;28;20046;-68
2023/01/24 12:51:26;;;;;;;14.88;8.35;;;3.80;99.90;;;;;;5016155;28;20049;-68
2023/01/24 12:54:22;;;;;;;19.70;10.65;;;3.70;99.90;;;;;;5015931;28;20045;-68
2023/01/24 12:56:59;;;;;;;14.18;8.93;;;3.70;99.90;;;;;;5014020;28;20053;-68
2023/01/24 12:59:27;;;;;;;15.18;8.73;;;3.70;99.90;;;;;;4998693;28;20104;-68
2023/01/24 13:02:02;;;;;;;14.55;8.52;;;3.70;99.90;;;;;;5012797;28;20054;-70
2023/01/24 13:05:13;;;;;;;12.82;8.05;;;4.00;99.90;;;;;;5014978;28;20056;-69
2023/01/24 13:07:57;;;;;;;15.50;8.90;;;3.60;99.90;;;;;;4999496;28;20053;-69
2023/01/24 13:10:31;;;;;;;12.85;7.13;;;3.70;99.90;;;;;;5015437;28;20431;-68
2023/01/24 13:12:59;;;;;;;12.20;7.13;;;3.80;99.90;;;;;;5014878;28;20050;-68
2023/01/24 13:15:32;;;;;;;14.50;8.05;;;4.30;99.90;;;;;;5014833;28;20056;-68
2023/01/24 13:18:36;;;;;;;14.57;8.07;;;3.70;99.90;;;;;;4997396;28;20060;-68
2023/01/24 13:21:37;;;;;;;15.90;9.52;;;3.60;99.90;;;;;;4954068;28;20059;-68
2023/01/24 13:24:02;;;;;;;15.13;9.23;;;3.60;99.90;;;;;;5001171;28;20132;-67
2023/01/24 13:26:50;;;;;;;16.00;8.48;;;4.00;99.90;;;;;;5014350;28;20132;-68
2023/01/24 13:29:48;;;;;;;12.52;7.97;;;3.70;99.90;;;;;;5014658;28;20117;-70
2023/01/24 13:32:16;;;;;;;14.13;8.57;;;3.60;99.90;;;;;;5006470;28;20054;-68
2023/01/24 13:34:52;;;;;;;16.55;9.15;;;4.00;99.90;;;;;;5014500;28;20117;-67
2023/01/24 13:37:33;;;;;;;16.02;8.85;;;3.60;99.90;;;;;;5014550;28;20060;-68
2023/01/24 13:40:13;;;;;;;14.90;8.25;;;3.70;99.90;;;;;;5015076;28;20042;-68